Time;durP1;ratioP1;P1;durP2;ratioP2;P2;SDS_P1;SDS_P2;PMS_P1;PMS_P2;Temp;Humidity;BMP_temperature;BMP_pressure;BME280_temperature;BME280_humidity;BME280_pressure;Samples;Min_cycle;Max_cycle;Signal;HPM_P1;HPM_P2
2021/11/13 00:01:13;;;;;;;5.60;3.33;;;6.40;71.90;;;;;;2562922;53;20941;-69
2021/11/13 00:03:40;;;;;;;5.20;3.08;;;6.40;71.90;;;;;;2334039;54;20980;-69
2021/11/13 00:06:07;;;;;;;5.60;3.15;;;6.40;71.90;;;;;;2555739;53;21474;-68
2021/11/13 00:08:33;;;;;;;4.87;2.80;;;6.40;71.70;;;;;;2322988;55;21018;-69
2021/11/13 00:11:00;;;;;;;4.32;2.50;;;6.40;71.70;;;;;;2577488;53;21745;-69
2021/11/13 00:13:26;;;;;;;5.07;2.72;;;6.50;71.90;;;;;;2556095;53;21017;-69
2021/11/13 00:15:52;;;;;;;4.97;3.03;;;6.40;71.80;;;;;;2557146;53;20940;-69
2021/11/13 00:18:19;;;;;;;4.82;2.83;;;6.40;71.70;;;;;;2576424;53;20929;-68
2021/11/13 00:20:48;;;;;;;4.00;2.42;;;6.40;71.60;;;;;;2589695;53;21552;-69
2021/11/13 00:23:15;;;;;;;5.47;3.03;;;6.40;71.60;;;;;;2343273;54;20958;-69
2021/11/13 00:25:42;;;;;;;4.28;2.60;;;6.40;71.50;;;;;;2341874;54;20909;-69
2021/11/13 00:28:08;;;;;;;6.07;2.70;;;6.40;71.50;;;;;;2564324;53;21524;-69
2021/11/13 00:30:38;;;;;;;7.07;3.25;;;6.40;71.40;;;;;;2587904;53;20940;-68
2021/11/13 00:33:04;;;;;;;5.18;2.75;;;6.40;71.40;;;;;;2337955;54;21073;-69
2021/11/13 00:35:31;;;;;;;5.72;2.90;;;6.40;71.30;;;;;;2557531;53;20933;-69
2021/11/13 00:37:57;;;;;;;4.45;2.35;;;6.30;71.30;;;;;;2577798;53;21399;-68
2021/11/13 00:40:24;;;;;;;7.55;3.47;;;6.30;71.40;;;;;;2589288;53;20937;-69
2021/11/13 00:42:50;;;;;;;5.57;3.10;;;6.30;71.50;;;;;;2329320;54;20992;-68
2021/11/13 00:45:17;;;;;;;7.30;3.42;;;6.30;71.50;;;;;;2337565;54;20976;-69
2021/11/13 00:47:43;;;;;;;5.37;3.03;;;6.30;71.50;;;;;;2342429;54;20941;-69
2021/11/13 00:50:12;;;;;;;5.05;2.87;;;6.30;71.70;;;;;;2570946;53;20961;-69
2021/11/13 00:52:39;;;;;;;5.72;3.22;;;6.30;71.80;;;;;;2330530;54;21071;-69
2021/11/13 00:55:08;;;;;;;4.82;2.92;;;6.30;71.90;;;;;;2571848;53;21000;-69
2021/11/13 00:57:35;;;;;;;7.30;3.58;;;6.30;72.00;;;;;;2342590;54;21088;-69
2021/11/13 01:00:04;;;;;;;7.10;3.67;;;6.30;72.00;;;;;;2342577;54;22026;-69
2021/11/13 01:02:31;;;;;;;7.47;3.90;;;6.30;72.10;;;;;;2343482;54;20996;-69
2021/11/13 01:04:58;;;;;;;6.90;3.30;;;6.30;72.20;;;;;;2588592;53;21289;-69
2021/11/13 01:07:25;;;;;;;5.47;3.22;;;6.30;72.40;;;;;;2343193;54;21375;-68
2021/11/13 01:09:52;;;;;;;7.28;3.92;;;6.40;72.60;;;;;;2589053;53;20925;-69
2021/11/13 01:12:18;;;;;;;7.32;4.15;;;6.40;72.70;;;;;;2588761;53;20913;-68
2021/11/13 01:14:45;;;;;;;8.75;4.37;;;6.40;72.80;;;;;;2589199;53;20933;-69
2021/11/13 01:17:13;;;;;;;7.30;3.55;;;6.50;73.00;;;;;;2342565;54;20977;-69
2021/11/13 01:19:41;;;;;;;6.37;3.67;;;6.50;73.10;;;;;;2559137;53;20956;-69
2021/11/13 01:22:07;;;;;;;8.10;4.50;;;6.50;73.10;;;;;;2336017;54;20986;-69
2021/11/13 01:24:34;;;;;;;8.15;4.68;;;6.60;73.20;;;;;;2566632;53;20965;-69
2021/11/13 01:27:01;;;;;;;7.47;4.40;;;6.60;73.10;;;;;;2588482;53;21612;-69
2021/11/13 01:29:27;;;;;;;7.07;3.95;;;6.60;73.10;;;;;;2342766;54;21355;-69
2021/11/13 01:31:54;;;;;;;6.55;4.07;;;6.70;73.00;;;;;;2589772;53;20936;-69
2021/11/13 01:34:21;;;;;;;6.93;3.78;;;6.70;73.00;;;;;;2343152;54;20965;-69
2021/11/13 01:36:49;;;;;;;8.18;4.60;;;6.70;73.10;;;;;;2588061;53;20946;-68
2021/11/13 01:39:16;;;;;;;8.02;4.32;;;6.80;73.20;;;;;;2342636;54;20957;-69
2021/11/13 01:41:43;;;;;;;6.70;4.03;;;6.80;73.30;;;;;;2588466;53;20953;-69
2021/11/13 01:44:09;;;;;;;8.23;5.15;;;6.80;73.30;;;;;;2341213;54;20980;-69
2021/11/13 01:46:36;;;;;;;9.70;5.75;;;6.80;73.30;;;;;;2343185;54;20933;-68
2021/11/13 01:49:03;;;;;;;10.88;5.55;;;6.90;73.40;;;;;;2342384;54;20936;-69
2021/11/13 01:51:30;;;;;;;10.48;5.80;;;6.90;73.40;;;;;;2588479;53;20914;-69
2021/11/13 01:53:59;;;;;;;10.23;6.25;;;7.00;73.50;;;;;;2323346;55;20977;-68
2021/11/13 01:56:27;;;;;;;9.13;5.07;;;7.00;73.50;;;;;;2561359;53;20937;-69
2021/11/13 01:58:54;;;;;;;12.23;5.97;;;7.00;73.50;;;;;;2336957;54;20921;-69
2021/11/13 02:01:21;;;;;;;10.93;5.95;;;7.00;73.50;;;;;;2556524;53;21543;-69
2021/11/13 02:03:48;;;;;;;10.25;5.70;;;7.10;73.50;;;;;;2313329;54;20956;-69
2021/11/13 02:06:15;;;;;;;10.00;4.97;;;7.10;73.40;;;;;;2563817;53;20925;-69
2021/11/13 02:08:42;;;;;;;6.60;4.15;;;7.10;73.40;;;;;;2559581;53;20981;-69
2021/11/13 02:11:10;;;;;;;6.87;4.05;;;7.20;73.20;;;;;;2332782;54;20953;-69
2021/11/13 02:13:36;;;;;;;6.97;4.03;;;7.20;73.00;;;;;;2342631;54;21454;-69
2021/11/13 02:16:14;;;;;;;7.22;3.97;;;7.20;72.80;;;;;;2589318;53;21391;-68
2021/11/13 02:18:41;;;;;;;6.12;3.70;;;7.20;72.60;;;;;;2342937;54;21032;-69
2021/11/13 02:21:09;;;;;;;7.22;3.50;;;7.20;72.20;;;;;;2589123;53;20985;-69
2021/11/13 02:23:35;;;;;;;5.60;3.47;;;7.20;72.10;;;;;;2342837;54;20941;-69
2021/11/13 02:26:02;;;;;;;5.28;2.92;;;7.20;72.00;;;;;;2556582;53;21033;-69
2021/11/13 02:28:28;;;;;;;6.25;3.78;;;7.10;71.70;;;;;;2334537;53;20967;-69
2021/11/13 02:30:57;;;;;;;6.10;3.70;;;7.10;71.70;;;;;;2589257;53;21029;-68
2021/11/13 02:33:23;;;;;;;6.57;3.85;;;7.10;71.70;;;;;;2324339;54;20949;-69
2021/11/13 02:35:50;;;;;;;7.55;3.90;;;7.10;71.60;;;;;;2342906;54;20933;-69
2021/11/13 02:38:19;;;;;;;6.97;3.75;;;7.10;71.60;;;;;;2328128;54;22258;-69
2021/11/13 02:40:47;;;;;;;8.23;4.32;;;7.00;71.60;;;;;;2339663;54;21009;-69
2021/11/13 02:43:14;;;;;;;7.60;4.18;;;7.00;71.60;;;;;;2566324;53;20953;-69
2021/11/13 02:45:40;;;;;;;7.87;4.28;;;7.00;71.70;;;;;;2583896;53;21000;-69
2021/11/13 02:48:07;;;;;;;7.72;4.43;;;7.00;71.70;;;;;;2562425;53;21009;-68
2021/11/13 02:50:34;;;;;;;7.78;4.75;;;7.00;71.60;;;;;;2575874;53;20980;-69
2021/11/13 02:53:00;;;;;;;8.00;4.53;;;7.00;71.60;;;;;;2323132;54;21000;-69
2021/11/13 02:55:27;;;;;;;6.25;3.62;;;6.90;71.40;;;;;;2573473;53;21902;-69
2021/11/13 02:57:53;;;;;;;7.53;4.55;;;6.90;71.50;;;;;;2589071;53;20929;-69
2021/11/13 03:00:22;;;;;;;8.13;4.60;;;6.90;71.60;;;;;;2589464;53;21417;-69
2021/11/13 03:02:51;;;;;;;14.05;5.37;;;6.90;71.70;;;;;;2341827;54;20936;-68
2021/11/13 03:05:26;;;;;;;11.98;6.28;;;6.90;71.80;;;;;;2342741;54;20984;-69
2021/11/13 03:07:53;;;;;;;8.68;5.18;;;6.90;71.90;;;;;;2588205;53;20966;-69
2021/11/13 03:10:20;;;;;;;9.75;5.37;;;6.90;71.90;;;;;;2588595;53;21004;-69
2021/11/13 03:12:46;;;;;;;10.10;5.53;;;6.90;72.00;;;;;;2328611;54;21009;-69
2021/11/13 03:15:15;;;;;;;11.25;5.05;;;6.90;72.10;;;;;;2338296;54;21835;-69
2021/11/13 03:17:41;;;;;;;9.27;5.45;;;6.90;72.20;;;;;;2342820;54;20917;-69
2021/11/13 03:20:09;;;;;;;9.82;5.50;;;6.90;72.20;;;;;;2589347;53;20922;-69
2021/11/13 03:22:37;;;;;;;11.65;5.45;;;6.90;72.20;;;;;;2343272;54;20933;-69
2021/11/13 03:25:10;;;;;;;11.98;5.55;;;6.90;72.20;;;;;;2576316;53;21761;-69
2021/11/13 03:27:41;;;;;;;9.52;5.05;;;6.90;72.20;;;;;;2312951;55;21040;-69
2021/11/13 03:30:08;;;;;;;10.02;5.78;;;6.90;72.20;;;;;;2317539;54;21048;-69
2021/11/13 03:32:36;;;;;;;9.68;5.05;;;6.90;72.20;;;;;;2306368;55;21872;-69
2021/11/13 03:35:06;;;;;;;7.95;4.87;;;6.90;72.20;;;;;;2323313;54;20952;-69
2021/11/13 03:37:32;;;;;;;8.60;4.55;;;6.90;72.20;;;;;;2324589;54;21502;-69
2021/11/13 03:39:59;;;;;;;8.60;4.90;;;6.90;72.30;;;;;;2584841;53;20921;-69
2021/11/13 03:42:29;;;;;;;8.77;4.93;;;6.90;72.30;;;;;;2323440;54;21009;-69
2021/11/13 03:44:58;;;;;;;9.57;5.00;;;6.90;72.40;;;;;;2588888;53;21521;-69
2021/11/13 03:47:26;;;;;;;8.10;4.50;;;6.90;72.30;;;;;;2342870;54;20941;-69
2021/11/13 03:49:54;;;;;;;8.93;5.28;;;6.90;72.30;;;;;;2558842;53;20956;-69
2021/11/13 03:52:21;;;;;;;9.38;5.55;;;7.00;72.40;;;;;;2334555;54;21027;-69
2021/11/13 03:54:47;;;;;;;9.93;5.45;;;7.00;72.40;;;;;;2555045;53;20996;-69
2021/11/13 03:57:14;;;;;;;10.25;5.30;;;7.00;72.40;;;;;;2320706;54;20937;-69
2021/11/13 03:59:41;;;;;;;8.60;4.85;;;7.00;72.40;;;;;;2342042;54;21056;-69
2021/11/13 04:02:10;;;;;;;9.85;5.37;;;7.00;72.40;;;;;;2342811;54;21080;-69
2021/11/13 04:04:40;;;;;;;8.88;4.68;;;7.00;72.40;;;;;;2588892;53;20940;-69
2021/11/13 04:07:07;;;;;;;9.27;5.50;;;7.00;72.40;;;;;;2343106;54;20945;-69
2021/11/13 04:09:33;;;;;;;10.82;5.90;;;7.00;72.40;;;;;;2588659;53;21930;-69
2021/11/13 04:12:04;;;;;;;11.30;6.07;;;7.00;72.40;;;;;;2342503;54;20941;-69
2021/11/13 04:14:32;;;;;;;12.27;5.75;;;7.00;72.40;;;;;;2342792;54;20930;-69
2021/11/13 04:16:59;;;;;;;9.65;5.43;;;7.00;72.40;;;;;;2342612;54;20933;-69
2021/11/13 04:19:26;;;;;;;8.40;4.72;;;7.00;72.40;;;;;;2342292;54;21004;-69
2021/11/13 04:21:53;;;;;;;9.35;4.90;;;7.00;72.40;;;;;;2334157;54;20953;-68
2021/11/13 04:24:20;;;;;;;10.75;5.72;;;7.10;72.50;;;;;;2567862;53;21012;-69
2021/11/13 04:26:47;;;;;;;10.75;5.62;;;7.10;72.50;;;;;;2529814;54;21528;-69
2021/11/13 04:29:14;;;;;;;9.52;6.18;;;7.10;72.60;;;;;;2574238;53;20933;-69
2021/11/13 04:31:40;;;;;;;8.93;4.95;;;7.10;72.50;;;;;;2589545;53;21025;-69
2021/11/13 04:34:13;;;;;;;10.57;5.75;;;7.10;72.50;;;;;;2326893;54;20957;-69
2021/11/13 04:36:42;;;;;;;;;;;7.10;72.50;;;;;;2591697;53;20932;-69
2021/11/13 04:39:09;;;;;;;9.88;4.72;;;7.10;72.10;;;;;;2342367;54;20130;-69
2021/11/13 04:41:36;;;;;;;8.25;4.35;;;7.10;72.40;;;;;;2587119;53;20985;-69
2021/11/13 04:44:04;;;;;;;11.23;6.15;;;7.10;72.40;;;;;;2588697;53;20898;-70
2021/11/13 04:46:31;;;;;;;12.63;7.05;;;7.10;72.20;;;;;;2342975;54;20996;-69
2021/11/13 04:48:57;;;;;;;10.93;6.12;;;7.10;71.90;;;;;;2589735;53;21422;-68
2021/11/13 04:51:24;;;;;;;10.55;5.97;;;7.10;71.60;;;;;;2342880;54;20937;-68
2021/11/13 04:53:50;;;;;;;10.25;5.87;;;7.10;71.60;;;;;;2589679;53;20966;-69
2021/11/13 04:56:17;;;;;;;10.40;5.57;;;7.00;71.50;;;;;;2323727;54;21001;-69
2021/11/13 04:58:43;;;;;;;10.48;5.78;;;7.00;71.60;;;;;;2589551;53;20913;-69
2021/11/13 05:01:10;;;;;;;9.75;5.47;;;7.00;71.60;;;;;;2338157;54;20996;-69
2021/11/13 05:03:36;;;;;;;9.57;5.65;;;7.00;71.70;;;;;;2572553;53;21798;-69
2021/11/13 05:06:03;;;;;;;8.82;5.47;;;7.00;71.70;;;;;;2343114;54;20993;-68
2021/11/13 05:08:32;;;;;;;9.13;4.57;;;6.90;71.60;;;;;;2589651;53;20992;-69
2021/11/13 05:11:04;;;;;;;8.20;4.87;;;6.90;71.70;;;;;;2342785;54;21755;-69
2021/11/13 05:13:30;;;;;;;8.05;4.60;;;6.90;71.70;;;;;;2589737;53;20969;-70
2021/11/13 05:15:57;;;;;;;8.23;4.82;;;6.90;71.70;;;;;;2343995;54;20945;-69
2021/11/13 05:18:24;;;;;;;7.68;4.53;;;6.90;71.80;;;;;;2589412;53;21497;-68
2021/11/13 05:20:51;;;;;;;8.07;4.65;;;6.90;71.90;;;;;;2343136;54;20937;-69
2021/11/13 05:23:18;;;;;;;7.20;4.20;;;6.90;71.90;;;;;;2561044;53;21398;-69
2021/11/13 05:25:44;;;;;;;8.50;5.30;;;6.80;72.00;;;;;;2343010;54;20968;-69
2021/11/13 05:28:10;;;;;;;7.87;4.80;;;6.80;72.20;;;;;;2587899;53;21564;-69
2021/11/13 05:30:37;;;;;;;7.28;4.45;;;6.90;72.30;;;;;;2325113;54;21477;-69
2021/11/13 05:33:05;;;;;;;8.35;4.10;;;6.90;72.40;;;;;;2584471;53;20930;-69
2021/11/13 05:35:31;;;;;;;7.25;4.25;;;6.90;72.60;;;;;;2343467;54;21835;-69
2021/11/13 05:37:58;;;;;;;6.70;4.18;;;6.90;72.60;;;;;;2567388;53;20929;-69
2021/11/13 05:40:25;;;;;;;7.55;4.35;;;6.90;72.70;;;;;;2338193;54;20937;-69
2021/11/13 05:42:52;;;;;;;7.00;4.15;;;6.90;72.60;;;;;;2554886;53;20965;-69
2021/11/13 05:45:18;;;;;;;7.32;4.00;;;7.00;72.80;;;;;;2324489;54;20933;-69
2021/11/13 05:47:44;;;;;;;7.90;4.40;;;7.00;72.70;;;;;;2589278;53;20963;-70
2021/11/13 05:50:12;;;;;;;7.90;4.65;;;7.00;72.80;;;;;;2342864;54;20933;-69
2021/11/13 05:52:40;;;;;;;9.82;5.37;;;7.00;72.70;;;;;;2589426;53;21100;-69
2021/11/13 05:55:07;;;;;;;9.57;5.75;;;7.00;72.80;;;;;;2588863;53;20945;-69
2021/11/13 05:57:36;;;;;;;10.30;5.43;;;7.00;72.80;;;;;;2322888;54;20976;-68
2021/11/13 06:00:22;;;;;;;7.07;4.68;;;7.10;72.90;;;;;;2343544;54;20976;-69
2021/11/13 06:02:48;;;;;;;8.43;4.97;;;7.10;72.90;;;;;;2588640;53;20893;-69
2021/11/13 06:05:15;;;;;;;6.80;4.12;;;7.10;73.00;;;;;;2560228;53;21901;-69
2021/11/13 06:08:05;;;;;;;10.23;5.28;;;7.20;73.10;;;;;;2586231;53;21080;-69
2021/11/13 06:10:33;;;;;;;8.93;4.85;;;7.20;73.10;;;;;;2331277;54;20977;-69
2021/11/13 06:12:59;;;;;;;7.45;4.20;;;7.20;73.30;;;;;;2545881;53;20964;-70
2021/11/13 06:15:26;;;;;;;8.73;5.22;;;7.30;73.80;;;;;;2326123;54;20981;-69
2021/11/13 06:17:53;;;;;;;8.85;5.53;;;7.30;74.30;;;;;;2313235;54;20945;-70
2021/11/13 06:20:20;;;;;;;11.98;6.85;;;7.40;75.00;;;;;;2320837;54;21048;-70
2021/11/13 06:22:48;;;;;;;10.73;6.12;;;7.50;75.40;;;;;;2568703;53;21911;-70
2021/11/13 06:25:16;;;;;;;9.98;6.60;;;7.60;75.80;;;;;;2320065;54;20948;-70
2021/11/13 06:27:43;;;;;;;8.75;5.70;;;7.80;76.10;;;;;;2564640;53;21564;-71
2021/11/13 06:30:11;;;;;;;8.93;5.32;;;7.90;76.20;;;;;;2319677;54;21045;-70
2021/11/13 06:32:38;;;;;;;11.25;6.03;;;8.00;76.30;;;;;;2547086;53;20937;-70
2021/11/13 06:35:06;;;;;;;8.02;4.93;;;8.20;76.30;;;;;;2317625;54;22022;-70
2021/11/13 06:37:32;;;;;;;8.73;4.78;;;8.30;76.20;;;;;;2553814;53;20927;-70
2021/11/13 06:39:59;;;;;;;7.40;4.25;;;8.40;76.10;;;;;;2312913;54;20953;-70
2021/11/13 06:42:26;;;;;;;7.05;3.83;;;8.50;75.90;;;;;;2551736;53;21848;-70
2021/11/13 06:44:53;;;;;;;6.05;3.58;;;8.60;75.70;;;;;;2323698;54;20996;-70
2021/11/13 06:47:19;;;;;;;7.37;4.25;;;8.70;75.50;;;;;;2568461;53;20984;-70
2021/11/13 06:49:47;;;;;;;9.90;4.18;;;8.70;75.40;;;;;;2333512;54;22061;-70
2021/11/13 06:52:13;;;;;;;7.40;4.90;;;8.80;74.80;;;;;;2578704;53;20993;-70
2021/11/13 06:54:39;;;;;;;6.87;4.70;;;8.80;74.20;;;;;;2334182;54;20933;-70
2021/11/13 06:57:06;;;;;;;7.90;4.82;;;8.80;73.80;;;;;;2579210;53;21033;-70
2021/11/13 06:59:33;;;;;;;7.00;3.87;;;8.80;73.60;;;;;;2321608;54;20968;-71
2021/11/13 07:01:59;;;;;;;6.62;4.03;;;8.80;73.60;;;;;;2326964;54;21059;-70
2021/11/13 07:04:28;;;;;;;7.37;4.40;;;8.80;73.40;;;;;;2333464;54;20932;-70
2021/11/13 07:06:58;;;;;;;6.68;4.07;;;8.80;73.30;;;;;;2578751;53;21873;-70
2021/11/13 07:09:24;;;;;;;7.62;4.35;;;8.90;73.50;;;;;;2333714;54;20989;-71
2021/11/13 07:11:51;;;;;;;7.37;4.28;;;8.90;73.50;;;;;;2551513;53;20968;-70
2021/11/13 07:14:20;;;;;;;7.05;4.57;;;8.90;73.70;;;;;;2319298;54;22097;-71
2021/11/13 07:16:47;;;;;;;8.23;5.25;;;8.90;73.60;;;;;;2552495;53;20997;-70
2021/11/13 07:19:13;;;;;;;8.07;5.28;;;9.00;73.70;;;;;;2318153;54;20937;-70
2021/11/13 07:21:39;;;;;;;7.30;4.60;;;9.10;73.80;;;;;;2578702;53;20941;-70
2021/11/13 07:24:07;;;;;;;8.38;4.90;;;9.00;73.60;;;;;;2333678;54;20921;-71
2021/11/13 07:26:35;;;;;;;8.77;5.12;;;9.00;73.60;;;;;;2548784;53;21941;-70
2021/11/13 07:29:06;;;;;;;7.93;5.07;;;9.00;73.60;;;;;;2570779;53;21398;-71
2021/11/13 07:31:33;;;;;;;9.05;5.10;;;9.10;73.80;;;;;;2553511;53;21999;-71
2021/11/13 07:34:01;;;;;;;11.70;5.03;;;9.10;73.70;;;;;;2317616;54;21064;-70
2021/11/13 07:36:29;;;;;;;7.87;4.32;;;9.10;73.60;;;;;;2569242;53;22090;-71
2021/11/13 07:38:55;;;;;;;7.62;4.45;;;9.20;73.70;;;;;;2562061;53;20948;-70
2021/11/13 07:41:23;;;;;;;8.38;4.95;;;9.20;73.70;;;;;;2578891;53;21064;-70
2021/11/13 07:43:50;;;;;;;8.20;5.30;;;9.20;73.70;;;;;;2334419;54;20941;-69
2021/11/13 07:46:16;;;;;;;9.68;7.03;;;9.30;73.80;;;;;;2579860;53;20973;-70
2021/11/13 07:48:43;;;;;;;11.60;8.30;;;9.30;73.90;;;;;;2313807;54;20952;-69
2021/11/13 07:51:09;;;;;;;11.55;7.75;;;9.30;74.00;;;;;;2580350;53;21211;-70
2021/11/13 07:53:37;;;;;;;10.13;6.68;;;9.30;74.10;;;;;;2316054;54;21005;-71
2021/11/13 07:56:05;;;;;;;11.57;8.40;;;9.40;74.30;;;;;;2331731;54;20936;-71
2021/11/13 07:58:32;;;;;;;11.75;8.25;;;9.40;74.30;;;;;;2547115;53;21972;-71
2021/11/13 08:00:59;;;;;;;11.40;7.18;;;9.50;74.30;;;;;;2332549;54;20945;-70
2021/11/13 08:03:29;;;;;;;11.32;6.75;;;9.50;74.20;;;;;;2333861;54;20928;-71
2021/11/13 08:05:58;;;;;;;7.97;5.65;;;9.60;74.20;;;;;;2550897;53;20972;-71
2021/11/13 08:08:25;;;;;;;8.60;5.30;;;9.60;74.20;;;;;;2314207;54;21901;-71
2021/11/13 08:10:52;;;;;;;7.65;5.30;;;9.70;74.40;;;;;;2558562;53;20913;-70
2021/11/13 08:13:28;;;;;;;7.97;5.18;;;9.70;74.50;;;;;;2307406;54;20991;-71
2021/11/13 08:15:55;;;;;;;8.07;5.22;;;9.80;74.80;;;;;;2543333;53;20940;-71
2021/11/13 08:18:21;;;;;;;7.55;4.75;;;9.90;75.00;;;;;;2311769;53;21022;-70
2021/11/13 08:20:48;;;;;;;8.70;4.87;;;9.90;75.20;;;;;;2578926;53;21067;-71
2021/11/13 08:23:15;;;;;;;7.07;4.45;;;10.00;74.60;;;;;;2335132;54;20964;-71
2021/11/13 08:25:43;;;;;;;7.10;4.40;;;10.10;74.80;;;;;;2580981;53;21994;-71
2021/11/13 08:28:09;;;;;;;8.52;5.25;;;10.20;75.00;;;;;;2335318;54;20941;-70
2021/11/13 08:30:36;;;;;;;10.20;5.97;;;10.30;75.20;;;;;;2580986;53;20940;-71
2021/11/13 08:33:07;;;;;;;9.15;5.60;;;10.50;75.20;;;;;;2323676;54;21980;-71
2021/11/13 08:35:37;;;;;;;9.77;5.93;;;10.60;75.00;;;;;;2569775;53;22123;-71
2021/11/13 08:38:06;;;;;;;8.85;5.00;;;10.60;74.80;;;;;;2328503;54;20973;-71
2021/11/13 08:40:33;;;;;;;8.95;5.35;;;10.70;74.90;;;;;;2320470;54;20941;-71
2021/11/13 08:42:59;;;;;;;8.93;5.65;;;10.80;74.70;;;;;;2551949;53;20953;-71
2021/11/13 08:45:26;;;;;;;7.72;5.10;;;10.90;74.60;;;;;;2561358;53;20997;-71
2021/11/13 08:47:53;;;;;;;7.57;4.85;;;10.90;74.30;;;;;;2333939;54;21031;-71
2021/11/13 08:50:23;;;;;;;8.98;5.05;;;11.00;74.10;;;;;;2559313;53;21973;-71
2021/11/13 08:52:53;;;;;;;9.77;5.30;;;11.00;73.80;;;;;;2326790;54;20973;-71
2021/11/13 08:55:22;;;;;;;10.55;5.55;;;11.10;73.70;;;;;;2527179;54;21058;-71
2021/11/13 08:57:48;;;;;;;8.77;5.45;;;11.10;73.30;;;;;;2311240;54;20937;-71
2021/11/13 09:00:22;;;;;;;8.65;5.32;;;11.10;72.90;;;;;;2551303;53;21100;-71
2021/11/13 09:02:50;;;;;;;9.18;5.45;;;11.10;72.60;;;;;;2316789;54;21988;-71
2021/11/13 09:05:20;;;;;;;9.00;5.22;;;11.10;72.60;;;;;;2566401;53;21001;-71
2021/11/13 09:07:46;;;;;;;7.87;5.35;;;11.10;72.70;;;;;;2328918;54;21080;-71
2021/11/13 09:10:13;;;;;;;8.52;5.20;;;11.10;72.70;;;;;;2549872;53;21976;-71
2021/11/13 09:12:41;;;;;;;8.50;4.90;;;11.10;72.80;;;;;;2568135;53;20976;-70
2021/11/13 09:15:11;;;;;;;8.57;5.30;;;11.20;72.90;;;;;;2555750;53;21024;-71
2021/11/13 09:17:41;;;;;;;8.85;5.55;;;11.20;72.90;;;;;;2330987;54;21020;-71
2021/11/13 09:20:08;;;;;;;9.35;5.35;;;11.20;73.10;;;;;;2563693;53;20936;-71
2021/11/13 09:22:36;;;;;;;9.35;5.80;;;11.30;73.20;;;;;;2581268;53;20965;-71
2021/11/13 09:25:09;;;;;;;10.18;5.87;;;11.30;73.30;;;;;;2581816;53;20993;-71
2021/11/13 09:27:43;;;;;;;8.77;5.65;;;11.30;73.10;;;;;;2336131;54;20949;-71
2021/11/13 09:30:13;;;;;;;10.50;5.80;;;11.40;73.00;;;;;;2337163;54;21913;-71
2021/11/13 09:32:43;;;;;;;9.32;5.97;;;11.40;73.10;;;;;;2312024;54;21045;-71
2021/11/13 09:35:13;;;;;;;11.90;7.80;;;11.40;73.10;;;;;;2534480;53;20983;-71
2021/11/13 09:37:41;;;;;;;14.95;9.48;;;11.40;73.20;;;;;;2476087;53;1700510;-71
2021/11/13 09:40:08;;;;;;;12.95;8.90;;;11.50;73.20;;;;;;2323165;54;22018;-71
2021/11/13 09:42:34;;;;;;;13.18;7.47;;;11.50;73.20;;;;;;2314671;54;20944;-71
2021/11/13 09:45:04;;;;;;;10.93;7.12;;;11.50;73.20;;;;;;2335369;54;20921;-70
2021/11/13 09:47:30;;;;;;;9.20;6.18;;;11.50;73.20;;;;;;2555727;53;21536;-70
2021/11/13 09:49:57;;;;;;;10.75;6.80;;;11.60;73.20;;;;;;2329710;54;21419;-71
2021/11/13 09:52:40;;;;;;;10.02;6.18;;;11.60;73.10;;;;;;2335248;54;20986;-72
2021/11/13 09:55:08;;;;;;;9.80;6.30;;;11.80;72.80;;;;;;2335244;54;20893;-71
2021/11/13 09:57:37;;;;;;;8.00;5.53;;;11.70;72.90;;;;;;2580977;53;20969;-71
2021/11/13 10:00:07;;;;;;;10.02;6.55;;;11.70;72.70;;;;;;2580350;53;20925;-71
2021/11/13 10:02:34;;;;;;;10.75;6.55;;;11.70;73.20;;;;;;2580075;53;21052;-71
2021/11/13 10:05:00;;;;;;;9.23;6.35;;;11.70;72.70;;;;;;2335038;54;20937;-71
2021/11/13 10:07:29;;;;;;;10.52;7.05;;;11.50;72.30;;;;;;2580640;53;20992;-71
2021/11/13 10:09:58;;;;;;;9.13;5.80;;;11.70;72.20;;;;;;2334806;54;20972;-71
2021/11/13 10:12:39;;;;;;;9.35;7.10;;;11.70;72.10;;;;;;2335048;54;21036;-71
2021/11/13 10:15:35;;;;;;;9.50;5.78;;;11.70;71.50;;;;;;2580361;53;21000;-72
2021/11/13 10:18:11;;;;;;;9.00;6.12;;;11.70;71.30;;;;;;2335835;54;20949;-71
2021/11/13 10:20:45;;;;;;;9.38;5.47;;;11.60;71.50;;;;;;2580395;53;20973;-72
2021/11/13 10:24:21;;;;;;;8.48;5.60;;;11.60;71.60;;;;;;2556452;53;21889;-71
2021/11/13 10:26:52;;;;;;;8.82;5.50;;;11.60;71.50;;;;;;2315552;54;20957;-71
2021/11/13 10:29:26;;;;;;;9.18;6.28;;;11.60;71.70;;;;;;2323833;54;21036;-71
2021/11/13 10:31:56;;;;;;;15.43;6.57;;;11.60;71.70;;;;;;2328284;54;20976;-71
2021/11/13 10:34:34;;;;;;;10.40;6.87;;;11.60;71.60;;;;;;2335229;54;21071;-71
2021/11/13 10:37:05;;;;;;;11.52;8.00;;;11.50;71.30;;;;;;2303899;55;20965;-71
2021/11/13 10:39:45;;;;;;;11.70;8.10;;;11.50;71.40;;;;;;2546732;53;20984;-71
2021/11/13 10:42:15;;;;;;;13.65;7.40;;;11.50;71.40;;;;;;2331851;54;20980;-71
2021/11/13 10:44:48;;;;;;;11.25;7.18;;;11.50;71.50;;;;;;2553238;53;20946;-70
2021/11/13 10:47:27;;;;;;;9.82;6.62;;;11.50;71.50;;;;;;2334521;54;20961;-71
2021/11/13 10:49:54;;;;;;;8.95;5.70;;;11.50;71.70;;;;;;2334507;54;20957;-71
2021/11/13 10:52:20;;;;;;;9.60;6.05;;;11.50;71.90;;;;;;2328322;54;20973;-71
2021/11/13 10:54:49;;;;;;;9.57;6.30;;;11.60;72.20;;;;;;2318949;54;20945;-71
2021/11/13 10:57:50;;;;;;;9.88;6.25;;;11.50;72.20;;;;;;2333447;54;21061;-71
2021/11/13 11:00:18;;;;;;;10.20;6.15;;;11.50;71.90;;;;;;2562439;53;21949;-71
2021/11/13 11:03:01;;;;;;;11.68;7.50;;;11.50;72.70;;;;;;2324238;54;20954;-71
2021/11/13 11:05:43;;;;;;;11.05;7.57;;;11.30;72.70;;;;;;2547097;53;20981;-71
2021/11/13 11:08:32;;;;;;;13.57;7.43;;;11.70;72.70;;;;;;2578040;53;20938;-71
2021/11/13 11:10:59;;;;;;;16.00;7.37;;;11.70;72.60;;;;;;2550950;53;20933;-71
2021/11/13 11:13:41;;;;;;;12.75;7.43;;;11.70;73.30;;;;;;2333515;54;20969;-70
2021/11/13 11:16:30;;;;;;;12.80;7.35;;;11.80;73.20;;;;;;2578190;53;20944;-70
2021/11/13 11:19:18;;;;;;;10.95;7.32;;;11.80;73.40;;;;;;2316016;54;20941;-68
2021/11/13 11:21:59;;;;;;;11.10;6.68;;;11.90;74.00;;;;;;2578311;53;20997;-68
2021/11/13 11:24:52;;;;;;;11.00;7.03;;;12.00;74.10;;;;;;2320704;54;20964;-69
2021/11/13 11:27:35;;;;;;;11.05;6.30;;;12.10;74.20;;;;;;2324719;54;20957;-69
2021/11/13 11:30:21;;;;;;;11.35;6.65;;;12.10;74.40;;;;;;2333741;54;20957;-67
2021/11/13 11:32:52;;;;;;;12.20;6.40;;;12.30;74.70;;;;;;2333479;54;21949;-68
2021/11/13 11:35:27;;;;;;;9.57;5.95;;;12.30;75.20;;;;;;2578355;53;21955;-68
2021/11/13 11:38:33;;;;;;;9.40;5.72;;;12.40;75.10;;;;;;2576668;53;20945;-68
2021/11/13 11:41:01;;;;;;;10.30;6.32;;;12.60;74.60;;;;;;2335131;54;21033;-68
2021/11/13 11:43:31;;;;;;;10.43;5.85;;;12.60;75.40;;;;;;2327707;54;20973;-69
2021/11/13 11:46:00;;;;;;;9.55;5.75;;;12.70;75.50;;;;;;2313907;54;20940;-67
2021/11/13 11:48:28;;;;;;;8.55;5.53;;;12.80;75.30;;;;;;2545433;53;21028;-68
2021/11/13 11:50:57;;;;;;;8.77;6.22;;;12.90;75.20;;;;;;2313502;54;21945;-68
2021/11/13 11:53:25;;;;;;;8.52;6.03;;;13.00;75.10;;;;;;2545013;53;21468;-70
2021/11/13 11:55:53;;;;;;;10.00;7.05;;;13.00;74.80;;;;;;2560025;53;20945;-69
2021/11/13 11:58:23;;;;;;;8.40;6.15;;;13.00;74.40;;;;;;2545067;53;20993;-68
2021/11/13 12:00:52;;;;;;;9.88;6.20;;;13.00;74.20;;;;;;2554677;53;21072;-69
2021/11/13 12:03:24;;;;;;;10.77;6.32;;;13.10;74.10;;;;;;2553655;53;21006;-69
2021/11/13 12:05:53;;;;;;;7.37;5.03;;;13.10;73.90;;;;;;2333122;54;20957;-70
2021/11/13 12:08:22;;;;;;;9.93;6.25;;;13.20;74.00;;;;;;2557037;53;21040;-69
2021/11/13 12:10:49;;;;;;;8.57;6.03;;;13.20;73.80;;;;;;2570945;53;20965;-70
2021/11/13 12:13:51;;;;;;;9.35;5.60;;;13.20;73.80;;;;;;2553320;53;21967;-68
2021/11/13 12:16:24;;;;;;;8.43;5.85;;;13.20;73.70;;;;;;2322314;54;20972;-72
2021/11/13 12:18:51;;;;;;;9.80;5.80;;;13.20;73.50;;;;;;2542474;52;21517;-71
2021/11/13 12:21:17;;;;;;;9.32;5.75;;;13.20;73.70;;;;;;2314232;54;21497;-71
2021/11/13 12:23:49;;;;;;;11.18;6.53;;;13.20;73.70;;;;;;2560600;53;21981;-70
2021/11/13 12:26:35;;;;;;;8.88;6.15;;;13.30;73.80;;;;;;2310892;54;20973;-71
2021/11/13 12:29:04;;;;;;;10.50;6.35;;;13.30;73.60;;;;;;2574910;53;20981;-71
2021/11/13 12:31:43;;;;;;;10.30;6.70;;;13.30;73.70;;;;;;2329322;54;20961;-72
2021/11/13 12:34:29;;;;;;;10.43;5.72;;;13.30;73.30;;;;;;2574554;53;21063;-70
2021/11/13 12:37:04;;;;;;;11.57;5.90;;;13.40;73.50;;;;;;2316665;54;20957;-71
2021/11/13 12:39:41;;;;;;;9.85;5.90;;;13.40;73.70;;;;;;2317208;54;21505;-71
2021/11/13 12:42:21;;;;;;;8.15;5.57;;;13.50;73.70;;;;;;2309847;54;20958;-71
2021/11/13 12:44:49;;;;;;;9.25;5.00;;;13.50;74.10;;;;;;2547870;53;20957;-71
2021/11/13 12:47:22;;;;;;;7.18;4.75;;;13.50;74.10;;;;;;2530903;53;21036;-72
2021/11/13 12:50:40;;;;;;;7.53;4.93;;;13.50;73.90;;;;;;2530030;53;22020;-71
2021/11/13 12:53:07;;;;;;;8.07;5.10;;;13.60;73.90;;;;;;2331811;54;21005;-71
2021/11/13 12:55:35;;;;;;;9.45;5.32;;;13.60;74.30;;;;;;2556107;53;22177;-71
2021/11/13 12:58:07;;;;;;;9.00;4.22;;;13.70;74.30;;;;;;2546407;53;20993;-71
2021/11/13 13:00:47;;;;;;;7.20;4.60;;;13.80;74.40;;;;;;2578556;53;20945;-72
2021/11/13 13:03:28;;;;;;;7.93;4.75;;;13.70;73.90;;;;;;2559806;53;21000;-70